Time;durP1;ratioP1;P1;durP2;ratioP2;P2;SDS_P1;SDS_P2;PMS_P1;PMS_P2;Temp;Humidity;BMP_temperature;BMP_pressure;BME280_temperature;BME280_humidity;BME280_pressure;Samples;Min_cycle;Max_cycle;Signal;HPM_P1;HPM_P2
2022/09/19 00:01:51;;;;;;;2.85;0.30;;;;;;;10.27;93.14;98300.22;4486364;32;20093;-75
2022/09/19 00:04:21;;;;;;;0.40;0.30;;;;;;;10.26;92.74;98295.94;4488423;31;20487;-75
2022/09/19 00:06:50;;;;;;;0.32;0.20;;;;;;;10.24;93.94;98282.19;4496233;31;20106;-75
2022/09/19 00:09:20;;;;;;;0.30;0.30;;;;;;;10.24;94.42;98290.03;4486289;31;20172;-75
2022/09/19 00:11:49;;;;;;;2.37;0.40;;;;;;;10.18;94.49;98284.59;4486469;32;20431;-75
2022/09/19 00:14:18;;;;;;;0.47;0.40;;;;;;;10.15;95.34;98277.84;4486195;31;20114;-75
2022/09/19 00:16:46;;;;;;;0.55;0.30;;;;;;;10.14;95.60;98273.56;4486128;31;20243;-76
2022/09/19 00:19:17;;;;;;;1.85;0.47;;;;;;;10.12;95.95;98278.94;4486095;31;20119;-75
2022/09/19 00:21:45;;;;;;;0.20;0.20;;;;;;;10.05;97.36;98271.81;4486083;31;20084;-75
2022/09/19 00:27:05;;;;;;;0.40;0.32;;;;;;;10.02;98.44;98264.25;4485987;32;20076;-75
2022/09/19 00:29:35;;;;;;;0.32;0.30;;;;;;;9.99;98.64;98256.72;4485040;32;20092;-75
2022/09/19 00:32:07;;;;;;;0.52;0.30;;;;;;;9.97;97.65;98259.47;4485974;31;20089;-75
2022/09/19 00:34:35;;;;;;;0.45;0.40;;;;;;;9.94;97.12;98263.19;4486047;31;20092;-75
2022/09/19 00:37:02;;;;;;;0.43;0.43;;;;;;;9.96;97.90;98252.59;4485980;31;20118;-75
2022/09/19 00:39:30;;;;;;;0.30;0.30;;;;;;;9.98;98.27;98253.28;4486112;31;20127;-75
2022/09/19 00:41:57;;;;;;;0.73;0.30;;;;;;;9.93;98.77;98248.50;4486094;32;20100;-75
2022/09/19 00:44:25;;;;;;;1.08;0.77;;;;;;;9.92;99.47;98252.06;4486072;31;20100;-75
2022/09/19 00:46:59;;;;;;;2.83;0.10;;;;;;;9.87;99.98;98254.31;4485855;31;20112;-75
2022/09/19 00:49:29;;;;;;;0.85;0.40;;;;;;;9.87;99.94;98258.69;4486057;31;20076;-75
2022/09/19 00:52:00;;;;;;;0.32;0.28;;;;;;;9.87;99.04;98263.94;4484699;32;20623;-75
2022/09/19 00:54:32;;;;;;;0.28;0.28;;;;;;;9.93;99.19;98265.97;4486051;31;20092;-75
2022/09/19 00:57:02;;;;;;;0.28;0.28;;;;;;;9.92;99.03;98272.19;4485084;32;20163;-75
2022/09/19 00:59:31;;;;;;;0.50;0.35;;;;;;;9.93;98.89;98265.97;4484928;32;20438;-75
2022/09/19 01:02:02;;;;;;;1.17;0.32;;;;;;;9.93;98.52;98276.41;4485937;31;20093;-75
2022/09/19 01:04:35;;;;;;;0.85;0.30;;;;;;;9.94;98.33;98265.81;4489406;31;20506;-75
2022/09/19 01:07:25;;;;;;;0.30;0.25;;;;;;;9.93;98.75;98260.72;4494383;31;20088;-75
2022/09/19 01:10:12;;;;;;;0.45;0.25;;;;;;;9.92;98.63;98249.44;4484626;32;20107;-75
2022/09/19 01:12:51;;;;;;;0.95;0.30;;;;;;;10.00;97.86;98261.78;4486123;31;20149;-75
2022/09/19 01:15:41;;;;;;;0.50;0.30;;;;;;;9.99;97.95;98264.56;4486182;31;20089;-75
2022/09/19 01:18:09;;;;;;;0.60;0.37;;;;;;;10.00;99.31;98267.03;4485629;31;20164;-75
2022/09/19 01:24:17;;;;;;;0.32;0.30;;;;;;;9.92;100.00;98265.16;4484789;32;20171;-75
2022/09/19 01:27:05;;;;;;;1.60;0.30;;;;;;;9.74;100.00;98251.19;4485800;31;20093;-75
2022/09/19 01:29:40;;;;;;;0.62;0.25;;;;;;;9.68;100.00;98247.34;4485835;31;20069;-75
2022/09/19 01:32:13;;;;;;;2.35;0.40;;;;;;;9.66;100.00;98238.84;4484482;32;20076;-76
2022/09/19 01:34:46;;;;;;;0.30;0.28;;;;;;;9.56;100.00;98243.28;4484589;32;20107;-76
2022/09/19 01:37:19;;;;;;;0.37;0.30;;;;;;;9.47;100.00;98237.09;4484659;32;20104;-75
2022/09/19 01:39:49;;;;;;;0.55;0.30;;;;;;;9.33;100.00;98237.59;4484786;32;20088;-76
2022/09/19 01:42:19;;;;;;;0.60;0.22;;;;;;;9.25;100.00;98246.13;4484737;32;20119;-75
2022/09/19 01:44:47;;;;;;;0.52;0.30;;;;;;;9.19;100.00;98238.84;4485691;31;20382;-75
2022/09/19 01:47:32;;;;;;;1.23;0.40;;;;;;;9.15;100.00;98238.31;4485653;31;20127;-75
2022/09/19 01:50:03;;;;;;;0.45;0.37;;;;;;;9.14;100.00;98246.28;4485894;31;20476;-76
2022/09/19 01:52:48;;;;;;;0.80;0.60;;;;;;;9.13;100.00;98239.41;4485894;31;20405;-76
2022/09/19 01:55:45;;;;;;;1.15;0.43;;;;;;;9.16;100.00;98236.50;4485952;31;20097;-75
2022/09/19 01:58:21;;;;;;;0.30;0.30;;;;;;;9.14;100.00;98236.66;4484597;32;20113;-75
2022/09/19 02:00:53;;;;;;;0.32;0.32;;;;;;;9.10;100.00;98226.63;4484309;32;20378;-76
2022/09/19 02:03:25;;;;;;;4.43;0.50;;;;;;;9.08;100.00;98233.78;4485551;32;20076;-75
2022/09/19 02:06:00;;;;;;;1.40;0.82;;;;;;;9.06;100.00;98232.13;4484139;32;20515;-75
2022/09/19 02:08:37;;;;;;;0.50;0.40;;;;;;;9.06;100.00;98226.91;4485553;31;20514;-75
2022/09/19 02:11:11;;;;;;;1.92;0.30;;;;;;;9.05;100.00;98234.88;4484331;32;20092;-75
2022/09/19 02:13:44;;;;;;;2.35;0.40;;;;;;;9.18;100.00;98250.28;4485811;31;20115;-76
2022/09/19 02:16:24;;;;;;;0.45;0.40;;;;;;;9.23;100.00;98250.66;4484229;32;20126;-76
2022/09/19 02:18:59;;;;;;;1.20;0.40;;;;;;;9.27;100.00;98246.81;4484150;32;20124;-75
2022/09/19 02:21:36;;;;;;;3.72;0.62;;;;;;;9.27;100.00;98248.63;4485004;31;20168;-76
2022/09/19 02:24:09;;;;;;;0.80;0.45;;;;;;;9.24;100.00;98249.72;4484536;32;20114;-76
2022/09/19 02:26:39;;;;;;;0.85;0.40;;;;;;;9.19;100.00;98254.53;4484304;32;20101;-76
2022/09/19 02:29:10;;;;;;;0.30;0.30;;;;;;;9.15;100.00;98253.16;4485430;31;20105;-75
2022/09/19 02:31:37;;;;;;;0.40;0.40;;;;;;;9.15;100.00;98247.94;4485462;31;20080;-76
2022/09/19 02:34:07;;;;;;;2.80;0.40;;;;;;;9.16;100.00;98260.03;4484262;32;20122;-75
2022/09/19 02:36:43;;;;;;;1.35;0.57;;;;;;;9.17;100.00;98262.50;4485035;31;20100;-75
2022/09/19 02:39:40;;;;;;;0.60;0.60;;;;;;;9.13;100.00;98260.31;4485655;31;20609;-75
2022/09/19 02:42:34;;;;;;;0.55;0.52;;;;;;;9.14;100.00;98264.59;4420526;32;20170;-75
2022/09/19 02:45:10;;;;;;;0.95;0.50;;;;;;;9.09;100.00;98256.34;4421015;32;20109;-76
2022/09/19 02:47:54;;;;;;;1.85;0.50;;;;;;;9.05;100.00;98246.19;4408357;32;20128;-75
2022/09/19 02:50:30;;;;;;;0.37;0.37;;;;;;;9.08;100.00;98246.84;4408501;32;20160;-75
2022/09/19 02:52:59;;;;;;;2.28;0.30;;;;;;;9.13;100.00;98227.19;4408100;32;20090;-75
2022/09/19 02:55:30;;;;;;;0.55;0.50;;;;;;;9.17;100.00;98238.97;4408484;32;20085;-76
2022/09/19 02:57:59;;;;;;;0.65;0.30;;;;;;;9.18;100.00;98235.41;4408031;32;20109;-75
2022/09/19 03:00:30;;;;;;;0.65;0.43;;;;;;;9.18;100.00;98231.97;4408537;32;20097;-75
2022/09/19 03:06:13;;;;;;;0.90;0.37;;;;;;;9.23;100.00;98228.00;4420414;32;20151;-76
2022/09/19 03:08:41;;;;;;;0.35;0.32;;;;;;;9.30;100.00;98228.22;4408184;32;20706;-75
2022/09/19 03:11:15;;;;;;;0.60;0.50;;;;;;;9.37;100.00;98239.78;4408124;32;20545;-75
2022/09/19 03:13:43;;;;;;;1.05;0.40;;;;;;;9.41;100.00;98240.31;4408280;32;20090;-76
2022/09/19 03:16:19;;;;;;;1.20;0.52;;;;;;;9.45;100.00;98244.28;4408273;32;20139;-76
2022/09/19 03:18:48;;;;;;;1.20;0.40;;;;;;;9.36;100.00;98242.53;4436347;32;20128;-75
2022/09/19 03:21:19;;;;;;;0.85;0.70;;;;;;;9.25;100.00;98238.31;4483620;32;20138;-76
2022/09/19 03:23:52;;;;;;;1.10;0.55;;;;;;;9.22;100.00;98238.59;4483857;32;20088;-76
2022/09/19 03:26:30;;;;;;;2.05;0.50;;;;;;;9.22;100.00;98228.13;4483915;32;20115;-76
2022/09/19 03:28:59;;;;;;;0.80;0.50;;;;;;;9.16;100.00;98234.75;4485068;32;20563;-75
2022/09/19 03:31:26;;;;;;;1.37;0.50;;;;;;;9.11;100.00;98236.94;4484886;31;20171;-75
2022/09/19 03:33:57;;;;;;;0.90;0.88;;;;;;;9.05;100.00;98240.97;4484623;31;20149;-76
2022/09/19 03:36:26;;;;;;;1.10;0.40;;;;;;;9.00;100.00;98243.16;4484660;32;20096;-75
2022/09/19 03:38:53;;;;;;;1.80;0.70;;;;;;;8.98;100.00;98242.47;4484616;31;20120;-75
2022/09/19 03:41:22;;;;;;;1.27;0.65;;;;;;;8.94;100.00;98241.09;4484921;32;20104;-75
2022/09/19 03:43:50;;;;;;;1.15;0.70;;;;;;;9.02;100.00;98238.63;4484957;32;20453;-75
2022/09/19 03:46:22;;;;;;;0.88;0.70;;;;;;;9.00;100.00;98237.09;4484801;31;20115;-75
2022/09/19 03:48:50;;;;;;;0.57;0.52;;;;;;;9.00;100.00;98240.53;4484758;31;20558;-76
2022/09/19 03:51:17;;;;;;;1.67;0.60;;;;;;;9.06;100.00;98234.75;4484712;31;20092;-76
2022/09/19 03:53:45;;;;;;;1.55;0.70;;;;;;;9.07;100.00;98243.44;4484513;31;20155;-76
2022/09/19 03:56:14;;;;;;;2.50;0.70;;;;;;;9.07;100.00;98243.44;4484757;31;20096;-76
2022/09/19 03:58:42;;;;;;;2.60;0.70;;;;;;;9.05;100.00;98240.09;4483138;32;20100;-76
2022/09/19 04:01:10;;;;;;;0.93;0.60;;;;;;;9.06;100.00;98237.34;4484612;31;20116;-74
2022/09/19 04:03:38;;;;;;;1.25;0.70;;;;;;;9.04;100.00;98238.47;4494812;31;20083;-74
2022/09/19 04:06:06;;;;;;;1.45;0.70;;;;;;;9.08;100.00;98232.00;4489019;31;20092;-75
2022/09/19 04:08:34;;;;;;;0.93;0.70;;;;;;;9.08;100.00;98236.41;4495289;31;20122;-74
2022/09/19 04:11:03;;;;;;;1.37;0.70;;;;;;;9.09;100.00;98240.69;4491773;31;20112;-74
2022/09/19 04:13:33;;;;;;;1.02;0.60;;;;;;;9.17;100.00;98249.44;4487368;31;20487;-74
2022/09/19 04:16:02;;;;;;;1.10;0.70;;;;;;;9.22;100.00;98249.03;4487111;31;20152;-74
2022/09/19 04:18:30;;;;;;;0.93;0.60;;;;;;;9.28;100.00;98250.25;4484859;31;20105;-74
2022/09/19 04:20:57;;;;;;;1.05;0.70;;;;;;;9.26;100.00;98250.38;4490745;31;20836;-74
2022/09/19 04:23:26;;;;;;;3.40;1.83;;;;;;;9.28;100.00;98243.25;4492446;31;20104;-74
2022/09/19 04:25:54;;;;;;;1.58;0.60;;;;;;;9.30;100.00;98246.53;4491076;31;20517;-74
2022/09/19 04:28:21;;;;;;;4.30;0.70;;;;;;;9.33;100.00;98248.03;4495269;31;20153;-74
2022/09/19 04:30:49;;;;;;;0.62;0.55;;;;;;;9.33;100.00;98238.41;4491210;31;20429;-74
2022/09/19 04:33:18;;;;;;;0.93;0.60;;;;;;;9.33;100.00;98241.00;4498236;31;20536;-74
2022/09/19 04:35:45;;;;;;;1.48;0.80;;;;;;;9.39;100.00;98231.78;4497526;31;20156;-74
2022/09/19 04:38:17;;;;;;;1.87;0.88;;;;;;;9.42;100.00;98226.28;4494944;31;20490;-74
2022/09/19 04:40:47;;;;;;;0.90;0.52;;;;;;;9.40;100.00;98223.81;4490310;31;20149;-74
2022/09/19 04:43:16;;;;;;;0.85;0.70;;;;;;;9.38;100.00;98225.72;4494088;31;20160;-74
2022/09/19 04:45:48;;;;;;;4.03;0.95;;;;;;;9.41;100.00;98222.81;4498024;31;20516;-74
2022/09/19 04:48:17;;;;;;;0.90;0.70;;;;;;;9.38;100.00;98230.94;4496103;31;20100;-74
2022/09/19 04:50:47;;;;;;;1.58;0.73;;;;;;;9.42;100.00;98228.88;4495304;31;20379;-74
2022/09/19 04:53:16;;;;;;;0.88;0.60;;;;;;;9.39;100.00;98237.00;4494462;31;20184;-74
2022/09/19 04:55:49;;;;;;;0.90;0.70;;;;;;;9.38;100.00;98236.16;4494111;31;20477;-74
2022/09/19 04:58:16;;;;;;;1.70;0.60;;;;;;;9.33;100.00;98235.78;4495319;31;20119;-74
2022/09/19 05:00:50;;;;;;;2.92;0.70;;;;;;;9.40;100.00;98238.63;4494786;31;20100;-74
2022/09/19 05:03:17;;;;;;;0.70;0.55;;;;;;;9.41;100.00;98250.75;4489039;31;20087;-74
2022/09/19 05:05:50;;;;;;;3.25;0.90;;;;;;;9.49;100.00;98247.44;4492065;31;20523;-75
2022/09/19 05:08:25;;;;;;;1.25;0.70;;;;;;;9.50;100.00;98260.34;4493003;31;20088;-76
2022/09/19 05:11:00;;;;;;;1.17;0.60;;;;;;;9.48;100.00;98262.31;4485999;31;20097;-76
2022/09/19 05:13:30;;;;;;;1.27;0.82;;;;;;;9.47;100.00;98267.66;4492308;31;20088;-76
2022/09/19 05:16:02;;;;;;;1.00;0.88;;;;;;;9.47;100.00;98280.75;4495228;31;20130;-75
2022/09/19 05:18:34;;;;;;;0.90;0.80;;;;;;;9.43;100.00;98279.37;4491354;31;20925;-76
2022/09/19 05:21:07;;;;;;;2.33;0.95;;;;;;;9.40;100.00;98286.53;4481993;31;20513;-76
2022/09/19 05:23:36;;;;;;;1.83;0.90;;;;;;;9.35;100.00;98293.16;4491480;31;20120;-76
2022/09/19 05:26:06;;;;;;;0.95;0.70;;;;;;;9.31;100.00;98297.84;4474178;31;20123;-78
2022/09/19 05:28:33;;;;;;;1.37;0.70;;;;;;;9.31;100.00;98291.78;4488927;31;20130;-77
2022/09/19 05:31:04;;;;;;;2.20;0.88;;;;;;;9.32;100.00;98304.72;4495479;31;20168;-77
2022/09/19 05:33:34;;;;;;;0.65;0.62;;;;;;;9.32;100.00;98309.94;4497301;31;20091;-77
2022/09/19 05:36:02;;;;;;;1.20;0.62;;;;;;;9.27;100.00;98309.53;4488899;31;20092;-77
2022/09/19 05:38:32;;;;;;;1.83;0.70;;;;;;;9.12;100.00;98311.75;4486066;31;20112;-77
2022/09/19 05:41:02;;;;;;;2.15;0.68;;;;;;;9.11;100.00;98309.28;4483556;31;20542;-76
2022/09/19 05:43:29;;;;;;;1.10;0.70;;;;;;;9.11;100.00;98306.66;4487108;31;20724;-76
2022/09/19 05:45:58;;;;;;;0.95;0.65;;;;;;;9.11;100.00;98296.22;4491657;31;20122;-76
2022/09/19 05:48:26;;;;;;;1.37;0.90;;;;;;;9.13;100.00;98294.28;4491589;31;20096;-77
2022/09/19 05:50:54;;;;;;;3.60;0.82;;;;;;;9.16;100.00;98296.63;4492408;31;20119;-76
2022/09/19 05:56:08;;;;;;;0.80;0.80;;;;;;;9.22;100.00;98306.53;4490952;31;20119;-76
2022/09/19 05:58:37;;;;;;;1.17;0.80;;;;;;;9.27;100.00;98308.72;4495251;31;20111;-75
2022/09/19 06:01:11;;;;;;;3.50;1.00;;;;;;;9.28;100.00;98311.19;4494863;31;20134;-74
2022/09/19 06:03:39;;;;;;;2.75;0.70;;;;;;;9.28;100.00;98310.34;4488518;31;20176;-74
2022/09/19 06:06:11;;;;;;;2.78;0.70;;;;;;;9.18;100.00;98316.44;4491627;31;106084;-78
2022/09/19 06:08:40;;;;;;;1.12;0.70;;;;;;;9.10;100.00;98321.53;4496723;31;20093;-78
2022/09/19 06:11:09;;;;;;;0.77;0.60;;;;;;;9.04;100.00;98320.28;4496713;31;20462;-78
2022/09/19 06:16:22;;;;;;;1.15;0.75;;;;;;;9.06;100.00;98310.50;4489615;31;20089;-76
2022/09/19 06:18:50;;;;;;;2.80;0.82;;;;;;;9.02;100.00;98313.53;4484199;31;20493;-77
2022/09/19 06:21:17;;;;;;;1.25;0.90;;;;;;;9.05;100.00;98324.56;4497640;31;20115;-77
2022/09/19 06:23:44;;;;;;;0.98;0.65;;;;;;;9.00;100.00;98321.53;4493681;31;20137;-75
2022/09/19 06:26:12;;;;;;;1.08;0.65;;;;;;;8.97;100.00;98329.63;4495699;31;20084;-78
2022/09/19 06:28:39;;;;;;;0.70;0.55;;;;;;;8.88;100.00;98333.91;4487402;31;20097;-75
2022/09/19 06:31:08;;;;;;;1.10;0.70;;;;;;;8.82;100.00;98329.22;4490845;31;20156;-76
2022/09/19 06:33:35;;;;;;;2.15;0.85;;;;;;;8.92;100.00;98328.41;4491802;31;20103;-78
2022/09/19 06:36:03;;;;;;;3.87;1.12;;;;;;;8.88;100.00;98331.28;4496483;31;20558;-75
2022/09/19 06:38:31;;;;;;;1.87;0.90;;;;;;;8.81;100.00;98331.97;4496567;31;20177;-74
2022/09/19 06:40:59;;;;;;;3.50;0.77;;;;;;;8.70;100.00;98330.31;4492657;31;20100;-76
2022/09/19 06:43:27;;;;;;;0.60;0.60;;;;;;;8.66;100.00;98335.00;4492717;31;20103;-79
2022/09/19 06:45:56;;;;;;;2.30;0.75;;;;;;;8.58;100.00;98340.06;4495812;31;20499;-79
2022/09/19 06:48:28;;;;;;;1.00;0.62;;;;;;;8.58;100.00;98340.06;4490198;31;20088;-77
2022/09/19 06:50:55;;;;;;;2.33;0.70;;;;;;;8.50;100.00;98335.50;4486937;31;20143;-76
2022/09/19 06:53:22;;;;;;;2.28;0.70;;;;;;;8.48;100.00;98334.00;4495110;31;20127;-77
2022/09/19 06:55:50;;;;;;;2.45;0.88;;;;;;;8.39;100.00;98343.44;4484554;31;20156;-77
2022/09/19 06:58:19;;;;;;;0.80;0.60;;;;;;;8.41;100.00;98335.47;4493127;31;20112;-74
2022/09/19 07:00:46;;;;;;;1.17;0.80;;;;;;;8.38;100.00;98341.78;4482398;31;20163;-77
2022/09/19 07:03:17;;;;;;;1.17;0.70;;;;;;;8.37;100.00;98336.69;4497005;31;20103;-76
2022/09/19 07:05:47;;;;;;;2.28;0.77;;;;;;;8.38;100.00;98338.34;4488587;31;20096;-77
2022/09/19 07:08:14;;;;;;;4.37;0.70;;;;;;;8.38;100.00;98346.19;4495307;31;20111;-75
2022/09/19 07:10:42;;;;;;;0.93;0.80;;;;;;;8.39;100.00;98351.25;4498555;31;20088;-78
2022/09/19 07:13:13;;;;;;;2.12;0.73;;;;;;;8.40;100.00;98344.25;4496406;31;20104;-78
2022/09/19 07:15:41;;;;;;;2.47;0.80;;;;;;;8.45;100.00;98347.34;4485060;31;20137;-76
2022/09/19 07:18:10;;;;;;;2.78;0.68;;;;;;;8.57;100.00;98345.41;4496868;31;20136;-77
2022/09/19 07:20:38;;;;;;;4.40;0.80;;;;;;;8.69;100.00;98354.78;4482544;31;20175;-76
2022/09/19 07:23:08;;;;;;;2.75;1.10;;;;;;;8.87;100.00;98360.16;4493988;31;20103;-74
2022/09/19 07:25:41;;;;;;;5.45;1.25;;;;;;;9.08;100.00;98354.81;4497230;31;20092;-76
2022/09/19 07:28:11;;;;;;;4.57;1.50;;;;;;;9.21;100.00;98355.34;4496928;31;20100;-75
2022/09/19 07:30:39;;;;;;;2.40;1.00;;;;;;;9.33;100.00;98357.84;4490515;31;20131;-72
2022/09/19 07:33:07;;;;;;;3.85;0.68;;;;;;;9.37;100.00;98367.03;4491478;31;20091;-77
2022/09/19 07:35:36;;;;;;;1.70;0.75;;;;;;;9.39;100.00;98354.66;4494718;31;20468;-75
2022/09/19 07:38:04;;;;;;;0.93;0.80;;;;;;;9.44;100.00;98362.09;4494158;31;20095;-76
2022/09/19 07:40:34;;;;;;;1.45;0.68;;;;;;;9.62;100.00;98368.22;4498155;31;20122;-78
2022/09/19 07:43:02;;;;;;;1.37;0.57;;;;;;;9.90;100.00;98368.28;4496760;31;20624;-78
2022/09/19 07:45:35;;;;;;;1.83;0.50;;;;;;;10.06;100.00;98373.75;4498458;31;20754;-80
2022/09/19 07:48:04;;;;;;;1.02;0.50;;;;;;;10.32;100.00;98377.50;4499379;31;20138;-76
2022/09/19 07:50:32;;;;;;;3.08;0.90;;;;;;;10.45;100.00;98371.00;4496712;31;20138;-77
2022/09/19 07:53:04;;;;;;;1.15;0.65;;;;;;;10.51;100.00;98376.59;4498905;31;20092;-78
2022/09/19 07:55:32;;;;;;;4.28;0.70;;;;;;;10.47;100.00;98371.66;4498691;31;20118;-74
2022/09/19 07:58:00;;;;;;;1.83;0.77;;;;;;;10.51;100.00;98372.22;4497201;31;20100;-76
2022/09/19 08:00:28;;;;;;;1.85;0.70;;;;;;;10.47;100.00;98370.84;4498467;31;20093;-76
2022/09/19 08:03:01;;;;;;;1.83;0.70;;;;;;;10.57;100.00;98379.47;4498063;31;20091;-75
2022/09/19 08:05:32;;;;;;;5.68;0.77;;;;;;;10.55;100.00;98377.97;4496144;31;20607;-76
2022/09/19 08:08:00;;;;;;;10.55;4.12;;;;;;;10.65;100.00;98386.59;4485893;31;20131;-75
2022/09/19 08:10:30;;;;;;;2.97;1.77;;;;;;;10.81;100.00;98386.78;4496786;31;20114;-75
2022/09/19 08:13:02;;;;;;;2.15;0.75;;;;;;;11.21;100.00;98394.38;4497499;31;20143;-79
2022/09/19 08:15:31;;;;;;;1.15;0.70;;;;;;;11.01;100.00;98386.66;4497106;31;20133;-78
2022/09/19 08:18:01;;;;;;;2.50;1.10;;;;;;;10.95;100.00;98392.47;4496820;31;20104;-79
2022/09/19 08:20:31;;;;;;;7.47;2.35;;;;;;;10.85;100.00;98399.56;4491399;31;20131;-79
2022/09/19 08:23:07;;;;;;;3.67;1.70;;;;;;;10.97;100.00;98395.78;4499062;31;20115;-79
2022/09/19 08:25:38;;;;;;;2.50;0.75;;;;;;;11.03;100.00;98397.78;4500295;31;20480;-79
2022/09/19 08:28:05;;;;;;;2.90;0.70;;;;;;;11.05;100.00;98406.31;4500014;31;20157;-79
2022/09/19 08:30:34;;;;;;;3.50;1.50;;;;;;;10.94;100.00;98403.94;4499627;31;20122;-79
2022/09/19 08:33:02;;;;;;;1.95;0.95;;;;;;;11.00;100.00;98409.38;4497649;31;20178;-80
2022/09/19 08:35:31;;;;;;;13.02;7.60;;;;;;;10.86;100.00;98415.16;4498981;31;20084;-79
2022/09/19 08:38:00;;;;;;;0.73;0.60;;;;;;;10.53;100.00;98420.00;4498125;31;20092;-79
2022/09/19 08:40:28;;;;;;;3.40;0.70;;;;;;;10.47;100.00;98417.97;4493423;31;20096;-79
2022/09/19 08:43:36;;;;;;;3.50;2.37;;;;;;;10.61;100.00;98420.12;4488336;31;20130;-78
2022/09/19 08:46:03;;;;;;;1.17;1.00;;;;;;;11.06;99.76;98415.03;4431953;32;20106;-79
2022/09/19 08:48:48;;;;;;;1.85;0.80;;;;;;;11.39;92.54;98417.97;4429004;32;20161;-79
2022/09/19 08:51:19;;;;;;;18.15;6.45;;;;;;;11.51;91.96;98409.69;4429413;32;20292;-79
2022/09/19 08:53:50;;;;;;;2.67;1.35;;;;;;;11.86;92.73;98428.97;4429844;32;20097;-79
2022/09/19 08:56:19;;;;;;;43.67;11.38;;;;;;;11.63;89.18;98420.78;4412313;32;20120;-78
2022/09/19 08:58:50;;;;;;;16.42;6.35;;;;;;;11.49;91.17;98429.16;4414473;32;20106;-80
2022/09/19 09:01:18;;;;;;;6.40;0.57;;;;;;;11.23;92.87;98427.31;4409582;32;20209;-79
2022/09/19 09:04:07;;;;;;;7.93;3.10;;;;;;;11.15;91.18;98419.38;4415369;32;20096;-81
2022/09/19 09:06:51;;;;;;;1.83;0.93;;;;;;;11.52;93.41;98434.97;4411944;32;20796;-79
2022/09/19 09:09:26;;;;;;;3.67;1.00;;;;;;;11.48;89.05;98424.91;4422676;32;20109;-79
2022/09/19 09:12:12;;;;;;;2.03;1.10;;;;;;;11.92;90.35;98427.53;4417012;32;20663;-80
2022/09/19 09:15:09;;;;;;;1.58;0.70;;;;;;;12.25;84.59;98431.19;4433340;32;20167;-80
2022/09/19 09:18:05;;;;;;;4.25;1.60;;;;;;;12.24;81.93;98423.47;4410102;32;20200;-80
2022/09/19 09:20:53;;;;;;;7.62;2.55;;;;;;;12.50;82.72;98441.81;4431884;32;20117;-80
2022/09/19 09:23:26;;;;;;;2.62;0.50;;;;;;;12.54;80.19;98437.91;4455050;31;20164;-80
2022/09/19 09:26:00;;;;;;;7.15;2.95;;;;;;;12.35;81.33;98438.16;4488253;31;20120;-80
2022/09/19 09:28:50;;;;;;;3.12;1.80;;;;;;;12.35;82.00;98431.06;4491191;31;20104;-80
2022/09/19 09:31:35;;;;;;;2.25;1.17;;;;;;;12.18;78.58;98440.69;4487944;31;20505;-77
2022/09/19 09:34:07;;;;;;;1.52;0.50;;;;;;;12.07;83.32;98446.22;4490847;31;20148;-78
2022/09/19 09:36:39;;;;;;;3.97;1.50;;;;;;;12.27;82.25;98440.75;4487331;31;20148;-77
2022/09/19 09:39:22;;;;;;;8.20;2.83;;;;;;;12.42;81.43;98449.69;4486857;31;20114;-77
2022/09/19 09:41:54;;;;;;;2.33;1.30;;;;;;;12.16;80.65;98442.66;4486461;31;20095;-77
2022/09/19 09:44:44;;;;;;;23.65;9.20;;;;;;;11.94;81.76;98437.91;4492078;31;20089;-78
2022/09/19 09:47:26;;;;;;;1.73;0.50;;;;;;;11.98;80.53;98436.63;4485521;31;20127;-77
2022/09/19 09:50:03;;;;;;;1.55;0.40;;;;;;;12.53;81.49;98451.19;4492163;31;20178;-78
2022/09/19 09:52:41;;;;;;;5.70;0.80;;;;;;;12.42;78.87;98447.06;4482452;31;20155;-77
2022/09/19 09:58:57;;;;;;;0.40;0.40;;;;;;;12.12;79.39;98443.94;4494379;31;20777;-76
2022/09/19 10:04:35;;;;;;;0.43;0.35;;;;;;;13.10;81.58;98454.03;4492168;31;20123;-76
2022/09/19 10:07:14;;;;;;;1.08;0.60;;;;;;;12.76;79.24;98457.56;4490098;31;20462;-78
2022/09/19 10:10:13;;;;;;;3.15;1.12;;;;;;;12.28;87.81;98458.12;4498713;31;20513;-77
2022/09/19 10:12:55;;;;;;;1.65;1.20;;;;;;;11.97;97.42;98469.09;4495317;31;20126;-77
2022/09/19 10:15:31;;;;;;;2.40;1.23;;;;;;;11.54;98.83;98471.53;4492601;31;20144;-79
2022/09/19 10:18:09;;;;;;;0.98;0.73;;;;;;;11.44;99.35;98465.53;4495541;31;20079;-79
2022/09/19 10:20:49;;;;;;;1.67;0.80;;;;;;;11.48;98.19;98466.88;4489394;31;20100;-77
2022/09/19 10:23:34;;;;;;;2.03;1.02;;;;;;;11.70;93.77;98449.84;4494863;31;20169;-76
2022/09/19 10:26:15;;;;;;;1.62;0.73;;;;;;;11.85;94.04;98453.59;4497756;31;20122;-76
2022/09/19 10:28:51;;;;;;;0.30;0.30;;;;;;;11.94;87.46;98456.28;4488284;31;20145;-76
2022/09/19 10:31:38;;;;;;;4.15;0.85;;;;;;;12.27;85.93;98451.25;4484339;31;20470;-76
2022/09/19 10:34:25;;;;;;;2.55;0.77;;;;;;;12.31;82.51;98448.16;4496917;31;20434;-76
2022/09/19 10:36:53;;;;;;;2.12;0.30;;;;;;;12.56;81.45;98459.59;4488972;31;20171;-75
2022/09/19 10:39:21;;;;;;;2.50;1.00;;;;;;;12.34;80.81;98453.09;4496992;31;20088;-75
2022/09/19 10:41:49;;;;;;;3.28;0.60;;;;;;;12.02;84.10;98449.28;4497667;31;20118;-75
2022/09/19 10:44:21;;;;;;;3.70;1.00;;;;;;;12.38;84.79;98450.97;4497447;31;20092;-75
2022/09/19 10:46:56;;;;;;;3.70;1.17;;;;;;;13.09;85.97;98452.38;4484688;31;20130;-75
2022/09/19 10:49:29;;;;;;;0.65;0.43;;;;;;;13.68;81.86;98445.41;4487636;31;20637;-76
2022/09/19 10:51:59;;;;;;;0.77;0.40;;;;;;;14.16;77.48;98448.97;4484944;31;20092;-75
2022/09/19 10:54:35;;;;;;;0.55;0.55;;;;;;;14.44;78.86;98441.47;4488307;31;20126;-75
2022/09/19 10:57:04;;;;;;;0.52;0.37;;;;;;;13.72;74.47;98444.91;4492253;31;20134;-74
2022/09/19 10:59:37;;;;;;;0.35;0.35;;;;;;;13.34;76.30;98449.00;4487260;31;20596;-74
2022/09/19 11:02:27;;;;;;;0.77;0.30;;;;;;;13.13;79.00;98458.16;4488736;31;20107;-75
2022/09/19 11:05:03;;;;;;;0.30;0.30;;;;;;;12.70;81.57;98455.56;4490133;31;20080;-76
2022/09/19 11:07:56;;;;;;;0.90;0.30;;;;;;;12.56;86.69;98450.88;4492099;31;20122;-76
2022/09/19 11:10:41;;;;;;;3.15;0.40;;;;;;;12.18;87.86;98464.31;4481612;31;20108;-75
2022/09/19 11:13:14;;;;;;;1.35;0.45;;;;;;;11.96;89.08;98460.41;4495800;31;20122;-75
2022/09/19 11:15:49;;;;;;;1.95;0.70;;;;;;;11.62;91.15;98470.78;4490071;31;20152;-75
2022/09/19 11:18:44;;;;;;;1.08;0.57;;;;;;;11.29;97.38;98496.69;4489238;31;20147;-75
2022/09/19 11:21:32;;;;;;;0.93;0.43;;;;;;;10.50;100.00;98506.75;4490423;31;20564;-74
2022/09/19 11:24:29;;;;;;;2.65;1.02;;;;;;;10.03;100.00;98501.44;4490875;31;20092;-76
2022/09/19 11:27:32;;;;;;;3.53;1.73;;;;;;;10.05;100.00;98499.50;4493142;31;20092;-74
2022/09/19 11:30:13;;;;;;;1.50;0.70;;;;;;;10.33;100.00;98497.00;4442610;32;20172;-76
2022/09/19 11:33:05;;;;;;;0.73;0.52;;;;;;;10.32;100.00;98496.16;4439997;32;20105;-76
2022/09/19 11:35:44;;;;;;;1.15;0.80;;;;;;;10.62;100.00;98495.09;4440348;32;20165;-75
2022/09/19 11:38:34;;;;;;;1.62;0.40;;;;;;;10.90;100.00;98491.66;4429591;32;20093;-76
2022/09/19 11:41:36;;;;;;;1.37;0.60;;;;;;;11.31;100.00;98484.25;4440672;32;20180;-74
2022/09/19 11:44:25;;;;;;;1.60;0.60;;;;;;;11.52;100.00;98489.19;4441278;32;20136;-77
2022/09/19 11:47:18;;;;;;;0.40;0.40;;;;;;;11.56;100.00;98485.31;4441652;32;20419;-76
2022/09/19 11:50:14;;;;;;;1.33;0.50;;;;;;;11.09;100.00;98488.94;4426620;32;20117;-78
2022/09/19 11:53:14;;;;;;;2.37;0.70;;;;;;;10.80;100.00;98494.34;4439636;32;21679;-77
2022/09/19 11:56:12;;;;;;;1.23;0.80;;;;;;;10.53;100.00;98497.78;4439053;32;20570;-77
2022/09/19 11:59:17;;;;;;;1.05;0.70;;;;;;;10.17;100.00;98500.19;4360090;32;20121;-78
2022/09/19 12:02:09;;;;;;;2.45;0.90;;;;;;;9.90;100.00;98506.97;4358166;32;20133;-76
2022/09/19 12:04:41;;;;;;;0.70;0.52;;;;;;;9.63;100.00;98508.50;4367040;32;20188;-76
2022/09/19 12:07:24;;;;;;;0.40;0.40;;;;;;;9.61;100.00;98507.81;4389551;32;20175;-75
2022/09/19 12:09:57;;;;;;;;;;;;;;;9.58;100.00;98502.84;4429706;32;20174;-75
2022/09/19 12:12:26;;;;;;;1.40;0.90;;;;;;;9.89;100.00;98510.56;4427979;32;20010;-75
2022/09/19 12:15:25;;;;;;;1.52;0.60;;;;;;;10.17;100.00;98502.81;4430377;32;20114;-76
2022/09/19 12:18:03;;;;;;;0.70;0.50;;;;;;;10.48;100.00;98511.31;4420260;32;20179;-76
2022/09/19 12:20:36;;;;;;;0.90;0.60;;;;;;;10.59;100.00;98503.25;4425764;32;20094;-76
2022/09/19 12:26:16;;;;;;;0.60;0.43;;;;;;;10.77;99.15;98505.94;4428750;32;20638;-76
2022/09/19 12:28:52;;;;;;;0.50;0.37;;;;;;;10.79;98.85;98511.03;4417477;32;20654;-76